Time;durP1;ratioP1;P1;durP2;ratioP2;P2;SDS_P1;SDS_P2;PMS_P1;PMS_P2;Temp;Humidity;BMP_temperature;BMP_pressure;BME280_temperature;BME280_humidity;BME280_pressure;Samples;Min_cycle;Max_cycle;Signal;HPM_P1;HPM_P2
2024/01/03 00:01:28;;;;;;;1.57;1.47;;;;;;;9.35;0.00;98293.66;6182524;28;20256;-71
2024/01/03 00:04:49;;;;;;;2.57;1.30;;;;;;;9.37;0.00;98298.81;6195560;28;20237;-71
2024/01/03 00:08:15;;;;;;;1.40;1.10;;;;;;;9.54;0.52;98295.69;6194064;28;20233;-71
2024/01/03 00:11:36;;;;;;;2.67;1.40;;;;;;;9.64;8.41;98290.81;6188905;28;20312;-71
2024/01/03 00:14:57;;;;;;;1.03;0.90;;;;;;;9.65;17.36;98281.75;6186625;28;20245;-70
2024/01/03 00:18:31;;;;;;;2.70;1.13;;;;;;;9.61;28.24;98279.63;6191351;28;20225;-71
2024/01/03 00:21:52;;;;;;;1.17;1.07;;;;;;;9.71;38.21;98276.59;6193162;28;22664;-70
2024/01/03 00:25:15;;;;;;;2.83;1.10;;;;;;;9.73;51.79;98261.94;6193193;28;20550;-71
2024/01/03 00:28:36;;;;;;;2.47;1.00;;;;;;;9.73;66.88;98263.78;6194735;28;20230;-71
2024/01/03 00:31:57;;;;;;;2.90;2.00;;;;;;;9.73;82.00;98263.78;6201742;28;20233;-70
2024/01/03 00:35:19;;;;;;;2.77;1.50;;;;;;;9.84;100.00;98261.41;6195295;28;23440;-70
2024/01/03 00:38:42;;;;;;;1.00;0.80;;;;;;;9.87;100.00;98257.47;6196100;28;20505;-71
2024/01/03 00:42:04;;;;;;;2.33;1.63;;;;;;;9.79;100.00;98266.53;6188372;28;20252;-70
2024/01/03 00:45:25;;;;;;;4.20;1.53;;;;;;;9.83;100.00;98256.19;6195847;28;20759;-69
2024/01/03 00:48:46;;;;;;;2.50;1.10;;;;;;;9.96;100.00;98267.06;6195967;28;20241;-69
2024/01/03 00:52:08;;;;;;;1.60;1.27;;;;;;;10.07;100.00;98247.69;6186408;28;20248;-70
2024/01/03 00:55:29;;;;;;;2.00;1.70;;;;;;;10.06;100.00;98244.16;6194435;28;20237;-70
2024/01/03 00:58:52;;;;;;;4.33;1.67;;;;;;;9.96;100.00;98250.91;6196887;28;20236;-70
2024/01/03 01:02:13;;;;;;;1.80;1.70;;;;;;;9.88;100.00;98243.84;6197573;28;20245;-70
2024/01/03 01:05:34;;;;;;;3.50;2.37;;;;;;;9.88;100.00;98240.31;6196741;28;20225;-70
2024/01/03 01:08:57;;;;;;;2.30;1.83;;;;;;;9.90;100.00;98240.94;6192228;28;20921;-69
2024/01/03 01:12:18;;;;;;;1.83;1.73;;;;;;;9.84;100.00;98244.41;6196477;28;20233;-70
2024/01/03 01:15:40;;;;;;;2.37;1.20;;;;;;;9.88;100.00;98240.31;6193885;28;20604;-70
2024/01/03 01:19:01;;;;;;;5.50;1.77;;;;;;;9.84;100.00;98245.25;6200627;28;20742;-70
2024/01/03 01:22:23;;;;;;;2.37;1.40;;;;;;;9.84;100.00;98233.66;6192502;28;20358;-70
2024/01/03 01:25:44;;;;;;;1.33;1.13;;;;;;;9.85;100.00;98240.69;6196473;28;20233;-70
2024/01/03 01:29:05;;;;;;;1.63;1.07;;;;;;;9.92;100.00;98238.88;6192420;28;20233;-70
2024/01/03 01:32:27;;;;;;;2.97;1.37;;;;;;;9.90;100.00;98235.56;6198027;28;20237;-70
2024/01/03 01:35:48;;;;;;;1.70;1.20;;;;;;;9.91;100.00;98235.34;6196849;28;21125;-69
2024/01/03 01:39:09;;;;;;;1.43;1.33;;;;;;;10.03;100.00;98246.41;6194881;28;20237;-69
2024/01/03 01:42:31;;;;;;;2.47;1.23;;;;;;;9.97;100.00;98231.88;6205099;28;20229;-69
2024/01/03 01:45:52;;;;;;;6.80;1.53;;;;;;;9.94;100.00;98242.19;6196711;28;20303;-69
2024/01/03 01:49:19;;;;;;;2.73;1.80;;;;;;;9.95;100.00;98244.69;6192916;28;20233;-69
2024/01/03 01:52:42;;;;;;;2.93;1.03;;;;;;;9.93;100.00;98254.00;6198721;28;20233;-69
2024/01/03 01:56:03;;;;;;;2.90;1.40;;;;;;;9.83;100.00;98250.81;6194074;28;20335;-69
2024/01/03 01:59:24;;;;;;;5.17;0.90;;;;;;;9.82;100.00;98247.31;6194975;28;20228;-70
2024/01/03 02:02:47;;;;;;;5.43;1.30;;;;;;;9.80;100.00;98240.47;6192254;28;20229;-71
2024/01/03 02:06:09;;;;;;;3.13;1.10;;;;;;;9.77;100.00;98238.13;6192218;28;20256;-69
2024/01/03 02:09:30;;;;;;;2.33;1.57;;;;;;;9.82;100.00;98241.09;6195432;28;20233;-69
2024/01/03 02:12:51;;;;;;;3.23;1.60;;;;;;;9.75;100.00;98232.13;6194585;28;20252;-70
2024/01/03 02:16:12;;;;;;;3.30;1.07;;;;;;;9.65;100.00;98227.94;6192903;28;20245;-70
2024/01/03 02:19:33;;;;;;;3.10;2.23;;;;;;;9.63;100.00;98234.53;6196473;28;20224;-69
2024/01/03 02:22:55;;;;;;;3.77;1.70;;;;;;;9.59;100.00;98223.34;6193038;28;20233;-70
2024/01/03 02:26:16;;;;;;;1.73;1.30;;;;;;;9.58;100.00;98227.03;6189185;28;20220;-70
2024/01/03 02:29:37;;;;;;;7.33;2.43;;;;;;;9.48;100.00;98218.50;6188989;28;20229;-71
2024/01/03 02:32:58;;;;;;;4.50;2.33;;;;;;;9.44;100.00;98221.75;6193126;28;20225;-72
2024/01/03 02:36:19;;;;;;;3.30;1.60;;;;;;;9.43;100.00;98217.38;6194354;28;20241;-71
2024/01/03 02:39:41;;;;;;;2.97;1.73;;;;;;;9.41;100.00;98214.91;6193151;28;20257;-71
2024/01/03 02:43:02;;;;;;;0.90;0.90;;;;;;;9.40;100.00;98261.66;6193889;28;20233;-70
2024/01/03 02:46:23;;;;;;;5.13;1.80;;;;;;;9.46;100.00;98233.16;6188412;28;20593;-69
2024/01/03 02:49:44;;;;;;;3.30;1.53;;;;;;;9.45;100.00;98240.38;6193457;28;20233;-69
2024/01/03 02:53:05;;;;;;;2.47;2.10;;;;;;;9.44;100.00;98224.44;6201521;28;20236;-69
2024/01/03 02:56:28;;;;;;;1.60;1.07;;;;;;;9.42;100.00;98223.81;6195025;28;20241;-71
2024/01/03 02:59:49;;;;;;;3.47;1.57;;;;;;;9.36;100.00;98232.66;6200912;28;20363;-71
2024/01/03 03:03:10;;;;;;;1.03;0.93;;;;;;;9.40;100.00;98233.94;6198827;28;20249;-70
2024/01/03 03:06:31;;;;;;;1.70;1.00;;;;;;;9.46;100.00;98233.16;6200387;28;20241;-69
2024/01/03 03:09:52;;;;;;;1.17;0.87;;;;;;;9.53;100.00;98239.44;6193944;28;20233;-70
2024/01/03 03:13:14;;;;;;;1.10;0.87;;;;;;;9.61;100.00;98255.41;6192448;28;20232;-69
2024/01/03 03:16:35;;;;;;;1.53;0.67;;;;;;;9.57;100.00;98233.44;6192559;28;20241;-69
2024/01/03 03:19:56;;;;;;;1.10;1.00;;;;;;;9.50;100.00;98258.63;6193879;28;20233;-69
2024/01/03 03:23:17;;;;;;;3.07;1.43;;;;;;;9.33;100.00;98238.41;6199790;28;20328;-70
2024/01/03 03:26:38;;;;;;;0.70;0.70;;;;;;;9.19;100.00;98256.28;6192527;28;20225;-70
2024/01/03 03:30:02;;;;;;;1.03;0.73;;;;;;;9.18;100.00;98235.78;6191422;28;20308;-71
2024/01/03 03:33:23;;;;;;;1.63;0.90;;;;;;;9.16;100.00;98237.00;6208686;28;20220;-71
2024/01/03 03:36:44;;;;;;;1.30;1.13;;;;;;;9.03;100.00;98253.84;6194376;28;20606;-70
2024/01/03 03:40:06;;;;;;;4.93;1.60;;;;;;;8.90;100.00;98237.56;6192955;28;20232;-70
2024/01/03 03:43:27;;;;;;;1.63;0.73;;;;;;;8.86;100.00;98231.72;6192755;28;20228;-70
2024/01/03 03:46:49;;;;;;;1.83;0.93;;;;;;;8.89;100.00;98235.09;6192024;28;20229;-70
2024/01/03 03:50:10;;;;;;;4.97;1.53;;;;;;;8.92;100.00;98232.00;6194597;28;20241;-71
2024/01/03 03:53:31;;;;;;;1.50;0.80;;;;;;;8.84;100.00;98239.16;6194720;28;20378;-70
2024/01/03 03:56:52;;;;;;;1.93;0.60;;;;;;;8.88;100.00;98265.66;6193434;28;20237;-69
2024/01/03 04:00:15;;;;;;;1.20;1.17;;;;;;;8.68;100.00;98239.38;6194847;28;20641;-71
2024/01/03 04:03:37;;;;;;;2.67;1.67;;;;;;;8.59;100.00;98251.28;6199878;28;20233;-70
2024/01/03 04:06:58;;;;;;;0.90;0.80;;;;;;;8.53;100.00;98243.13;6196280;28;20229;-70
2024/01/03 04:10:19;;;;;;;2.77;0.73;;;;;;;8.53;100.00;98237.75;6198762;28;20320;-70
2024/01/03 04:13:40;;;;;;;6.67;1.57;;;;;;;8.56;100.00;98232.84;6196214;28;20328;-70
2024/01/03 04:17:01;;;;;;;0.80;0.50;;;;;;;8.60;100.00;98244.03;6197412;28;20244;-70
2024/01/03 04:20:23;;;;;;;1.03;0.50;;;;;;;8.53;100.00;98238.56;6193982;28;20226;-71
2024/01/03 04:23:44;;;;;;;0.90;0.80;;;;;;;8.51;100.00;98237.94;6206206;28;20236;-71
2024/01/03 04:27:05;;;;;;;0.73;0.70;;;;;;;8.46;100.00;98239.53;6201370;28;20237;-70
2024/01/03 04:30:26;;;;;;;1.07;1.07;;;;;;;8.49;100.00;98263.31;6191668;28;20611;-69
2024/01/03 04:33:47;;;;;;;1.07;0.80;;;;;;;8.46;100.00;98220.72;6197004;28;20233;-70
2024/01/03 04:37:09;;;;;;;0.53;0.53;;;;;;;8.47;100.00;98217.03;6194529;28;20233;-69
2024/01/03 04:40:30;;;;;;;1.00;0.70;;;;;;;8.41;100.00;98220.44;6199011;28;20745;-70
2024/01/03 04:43:51;;;;;;;1.50;0.50;;;;;;;8.49;100.00;98223.88;6198367;28;20229;-70
2024/01/03 04:47:12;;;;;;;0.70;0.70;;;;;;;8.39;100.00;98303.88;6197210;28;20256;-70
2024/01/03 04:50:33;;;;;;;0.50;0.50;;;;;;;8.45;100.00;98216.41;6199653;28;20521;-70
2024/01/03 04:53:56;;;;;;;6.10;0.90;;;;;;;8.48;100.00;98256.28;6198868;28;20245;-71
2024/01/03 04:57:17;;;;;;;0.67;0.67;;;;;;;8.40;100.00;98237.59;6196477;28;20237;-70
2024/01/03 05:00:38;;;;;;;4.47;1.10;;;;;;;8.44;100.00;98238.88;6202102;28;20233;-69
2024/01/03 05:03:59;;;;;;;2.07;0.90;;;;;;;8.45;100.00;98238.69;6193631;28;20229;-69
2024/01/03 05:07:20;;;;;;;0.60;0.50;;;;;;;8.40;100.00;98218.81;6195551;28;20233;-70
2024/01/03 05:10:42;;;;;;;0.80;0.60;;;;;;;8.41;100.00;98236.56;6198504;28;20689;-70
2024/01/03 05:14:03;;;;;;;0.50;0.50;;;;;;;8.41;100.00;98232.03;6190760;28;20860;-70
2024/01/03 05:17:26;;;;;;;1.13;0.60;;;;;;;8.43;100.00;98216.56;6189558;28;20232;-70
2024/01/03 05:20:46;;;;;;;0.60;0.60;;;;;;;8.45;100.00;98227.94;6207611;28;20225;-71
2024/01/03 05:24:07;;;;;;;0.47;0.40;;;;;;;8.56;100.00;98229.31;6191908;28;21776;-70
2024/01/03 05:27:29;;;;;;;0.50;0.50;;;;;;;8.54;100.00;98220.63;6197869;28;20244;-70
2024/01/03 05:30:51;;;;;;;0.87;0.70;;;;;;;8.56;100.00;98248.13;6195622;28;20229;-70
2024/01/03 05:34:12;;;;;;;3.37;0.70;;;;;;;8.47;100.00;98246.56;6203368;28;20249;-70
2024/01/03 05:37:33;;;;;;;0.40;0.40;;;;;;;8.50;100.00;98247.03;6199702;28;20233;-70
2024/01/03 05:40:54;;;;;;;0.60;0.60;;;;;;;8.54;100.00;98244.78;6195709;28;21928;-70
2024/01/03 05:44:16;;;;;;;2.70;0.73;;;;;;;8.51;100.00;98258.59;6198216;28;20278;-69
2024/01/03 05:47:37;;;;;;;0.70;0.70;;;;;;;8.51;100.00;98270.16;6206334;28;20229;-70
2024/01/03 05:50:58;;;;;;;2.67;1.20;;;;;;;8.49;100.00;98268.69;6203431;28;20312;-70
2024/01/03 05:54:19;;;;;;;1.33;1.23;;;;;;;8.49;100.00;98256.09;6198371;28;20232;-70
2024/01/03 05:57:40;;;;;;;1.40;1.13;;;;;;;8.53;100.00;98245.81;6193663;28;23456;-71
2024/01/03 06:01:03;;;;;;;2.00;1.17;;;;;;;8.64;100.00;98262.25;6190785;28;20256;-70
2024/01/03 06:04:24;;;;;;;1.03;0.90;;;;;;;8.65;100.00;98268.47;6195057;28;20237;-69
2024/01/03 06:07:45;;;;;;;1.43;0.80;;;;;;;8.61;100.00;98251.91;6190548;28;20233;-71
2024/01/03 06:11:06;;;;;;;2.33;1.80;;;;;;;8.55;100.00;98255.31;6199301;28;20245;-71
2024/01/03 06:14:26;;;;;;;1.00;0.87;;;;;;;8.53;100.00;98270.78;6191444;28;20225;-71
2024/01/03 06:17:49;;;;;;;0.93;0.93;;;;;;;8.61;100.00;98257.28;6194926;28;20222;-71
2024/01/03 06:21:11;;;;;;;2.70;1.20;;;;;;;8.60;100.00;98300.41;6199885;28;20575;-70
2024/01/03 06:24:32;;;;;;;0.57;0.57;;;;;;;8.55;100.00;98271.44;6191729;28;20248;-71
2024/01/03 06:27:54;;;;;;;4.33;1.40;;;;;;;8.61;100.00;98277.94;6192341;28;21046;-70
2024/01/03 06:31:21;;;;;;;1.13;0.80;;;;;;;8.57;100.00;98265.91;6195259;28;20237;-69
2024/01/03 06:34:43;;;;;;;0.60;0.50;;;;;;;8.51;100.00;98264.78;6196623;28;20236;-71
2024/01/03 06:38:04;;;;;;;2.33;0.67;;;;;;;8.59;100.00;98288.88;6196728;28;20651;-69
2024/01/03 06:41:25;;;;;;;0.40;0.37;;;;;;;8.50;100.00;98291.81;6195079;28;20233;-70
2024/01/03 06:44:46;;;;;;;0.60;0.43;;;;;;;8.45;100.00;98316.53;6193545;28;20233;-71
2024/01/03 06:48:08;;;;;;;0.33;0.30;;;;;;;8.39;100.00;98308.38;6187201;28;20232;-72
2024/01/03 06:51:30;;;;;;;0.40;0.40;;;;;;;8.40;100.00;98280.53;6193879;28;20232;-71
2024/01/03 06:54:50;;;;;;;0.37;0.37;;;;;;;8.44;100.00;98335.53;6198355;28;20244;-71
2024/01/03 06:58:11;;;;;;;0.40;0.40;;;;;;;8.40;85.87;98342.28;6197684;28;20633;-72
2024/01/03 07:01:32;;;;;;;0.53;0.53;;;;;;;8.35;59.76;98352.72;6201016;28;20847;-71
2024/01/03 07:04:53;;;;;;;0.37;0.37;;;;;;;8.23;34.89;98320.13;6198829;28;20511;-71
2024/01/03 07:08:15;;;;;;;0.60;0.60;;;;;;;8.31;23.28;98338.00;6203950;28;20237;-72
2024/01/03 07:11:37;;;;;;;0.50;0.50;;;;;;;8.35;19.23;98337.47;6203754;28;20592;-72
2024/01/03 07:14:57;;;;;;;0.60;0.60;;;;;;;8.32;15.84;98342.38;6202889;28;20237;-70
2024/01/03 07:18:18;;;;;;;1.03;0.63;;;;;;;8.35;12.99;98342.84;6191427;28;20613;-70
2024/01/03 07:21:39;;;;;;;1.73;0.97;;;;;;;8.37;12.30;98348.00;6204740;28;20228;-71
2024/01/03 07:25:02;;;;;;;4.33;1.23;;;;;;;8.40;12.30;98329.69;6205788;28;20263;-71
2024/01/03 07:28:23;;;;;;;2.67;1.37;;;;;;;8.40;13.52;98340.44;6200579;28;20225;-69
2024/01/03 07:31:43;;;;;;;3.47;1.17;;;;;;;8.37;13.08;98342.63;6205339;28;20316;-69
2024/01/03 07:35:06;;;;;;;2.20;1.40;;;;;;;8.37;14.06;98343.47;6204004;28;20594;-69
2024/01/03 07:38:27;;;;;;;2.83;1.40;;;;;;;8.37;16.44;98346.16;6199520;28;20229;-73
2024/01/03 07:41:49;;;;;;;3.73;2.20;;;;;;;8.36;18.73;98355.25;6214523;28;20228;-73
2024/01/03 07:45:12;;;;;;;5.57;1.90;;;;;;;8.33;21.73;98342.19;6205401;28;20237;-74
2024/01/03 07:48:32;;;;;;;5.97;2.40;;;;;;;8.36;25.85;98349.88;6214721;28;20537;-74
2024/01/03 07:51:53;;;;;;;6.57;2.53;;;;;;;8.34;30.03;98343.88;6213074;28;20233;-73
2024/01/03 07:55:15;;;;;;;5.30;1.93;;;;;;;8.35;35.51;98344.66;6211776;28;20224;-74
2024/01/03 07:58:38;;;;;;;2.63;1.53;;;;;;;8.35;42.25;98342.00;6207497;28;20658;-73
2024/01/03 08:01:58;;;;;;;2.47;2.27;;;;;;;8.42;51.37;98343.78;6209141;28;20332;-73
2024/01/03 08:05:19;;;;;;;3.50;2.00;;;;;;;8.41;60.37;98343.94;6205018;28;20241;-71
2024/01/03 08:08:40;;;;;;;6.63;2.87;;;;;;;8.54;72.26;98336.06;6203838;28;20244;-74
2024/01/03 08:12:01;;;;;;;5.43;1.90;;;;;;;8.63;85.68;98359.13;6208209;28;20237;-70
2024/01/03 08:15:23;;;;;;;3.43;1.63;;;;;;;8.65;100.00;98355.25;6197792;28;22599;-69
2024/01/03 08:18:46;;;;;;;5.47;2.23;;;;;;;8.78;100.00;98341.16;6210192;28;20243;-70
2024/01/03 08:22:06;;;;;;;7.27;2.53;;;;;;;8.77;100.00;98345.69;6209892;28;20241;-68
2024/01/03 08:25:27;;;;;;;9.63;2.73;;;;;;;8.91;100.00;98365.50;6210128;28;20942;-68
2024/01/03 08:28:48;;;;;;;8.97;2.97;;;;;;;9.00;100.00;98344.72;6211424;28;20249;-68
2024/01/03 08:32:11;;;;;;;3.47;2.37;;;;;;;9.24;100.00;98361.34;6205061;28;20332;-68
2024/01/03 08:35:32;;;;;;;3.10;1.70;;;;;;;9.13;100.00;98359.16;6199634;28;20252;-68
2024/01/03 08:38:53;;;;;;;7.53;3.40;;;;;;;9.24;100.00;98349.78;6207031;28;20537;-69
2024/01/03 08:42:14;;;;;;;3.90;1.73;;;;;;;9.27;100.00;98363.66;6206249;28;20252;-69
2024/01/03 08:45:35;;;;;;;2.37;1.80;;;;;;;9.26;100.00;98388.88;6207132;28;20237;-69
2024/01/03 08:48:57;;;;;;;3.40;2.93;;;;;;;9.26;100.00;98377.31;6199455;28;20245;-69
2024/01/03 08:52:18;;;;;;;3.17;1.77;;;;;;;9.25;100.00;98376.47;6209546;28;20237;-69
2024/01/03 08:55:39;;;;;;;4.20;2.50;;;;;;;9.27;100.00;98378.97;6203894;28;20606;-69
2024/01/03 08:58:59;;;;;;;3.90;2.17;;;;;;;9.29;100.00;98385.81;6199847;28;20339;-69
2024/01/03 09:02:20;;;;;;;2.43;1.40;;;;;;;9.29;100.00;98407.31;6205570;28;20515;-69
2024/01/03 09:05:43;;;;;;;4.40;1.97;;;;;;;9.40;100.00;98416.75;6194532;28;20267;-69
2024/01/03 09:09:04;;;;;;;4.63;1.73;;;;;;;9.42;100.00;98371.69;6207774;28;20233;-68
2024/01/03 09:12:25;;;;;;;5.70;2.17;;;;;;;9.47;100.00;98386.22;6200253;28;20271;-69
2024/01/03 09:15:46;;;;;;;4.80;2.20;;;;;;;9.56;100.00;98395.00;6207220;28;20229;-69
2024/01/03 09:19:07;;;;;;;4.60;1.60;;;;;;;9.63;100.00;98412.91;6209816;28;20632;-70
2024/01/03 09:22:29;;;;;;;2.83;1.10;;;;;;;9.70;100.00;98420.22;6204084;28;20229;-69
2024/01/03 09:25:51;;;;;;;2.73;1.87;;;;;;;9.74;100.00;98413.41;6200853;28;20856;-69
2024/01/03 09:29:13;;;;;;;4.00;2.17;;;;;;;9.76;100.00;98403.28;6207215;28;20237;-70
2024/01/03 09:32:34;;;;;;;2.80;1.63;;;;;;;9.75;100.00;98402.44;6206181;28;20614;-69
2024/01/03 09:35:54;;;;;;;0.87;0.83;;;;;;;9.75;100.00;98428.50;6204959;28;20328;-69
2024/01/03 09:39:17;;;;;;;2.33;1.20;;;;;;;9.77;100.00;98411.16;6207182;28;20229;-69
2024/01/03 09:42:38;;;;;;;13.43;3.07;;;;;;;9.78;100.00;98412.00;6209761;28;20587;-69
2024/01/03 09:45:59;;;;;;;4.47;2.13;;;;;;;9.78;100.00;98412.84;6209683;28;20224;-69
2024/01/03 09:49:22;;;;;;;2.07;1.50;;;;;;;9.83;100.00;98441.84;6204028;28;20229;-68
2024/01/03 09:52:44;;;;;;;2.10;1.40;;;;;;;9.94;100.00;98433.28;6206153;28;20241;-69
2024/01/03 09:56:06;;;;;;;1.23;1.13;;;;;;;9.90;100.00;98419.38;6204150;28;20694;-67
2024/01/03 09:59:27;;;;;;;6.33;2.47;;;;;;;9.87;100.00;98433.19;6208474;28;20320;-67
2024/01/03 10:02:48;;;;;;;3.87;2.23;;;;;;;9.88;100.00;98432.19;6203701;28;20229;-68
2024/01/03 10:06:13;;;;;;;3.13;2.07;;;;;;;9.84;100.00;98427.38;6198449;28;20229;-67
2024/01/03 10:09:45;;;;;;;4.07;1.60;;;;;;;9.79;100.00;98454.00;6199499;28;20237;-67
2024/01/03 10:13:18;;;;;;;8.90;2.97;;;;;;;9.86;100.00;98428.84;6218103;28;20232;-67
2024/01/03 10:16:39;;;;;;;4.47;2.10;;;;;;;9.88;100.00;98436.72;6202106;28;20237;-67
2024/01/03 10:20:00;;;;;;;5.10;2.67;;;;;;;9.92;100.00;98433.47;6199678;28;20332;-67
2024/01/03 10:23:21;;;;;;;9.80;1.87;;;;;;;10.01;100.00;98435.00;6205166;28;20260;-67
2024/01/03 10:26:42;;;;;;;8.97;4.13;;;;;;;10.05;100.00;98420.16;6201225;28;20343;-66
2024/01/03 10:30:15;;;;;;;6.60;3.27;;;;;;;10.13;100.00;98464.97;6204250;28;20229;-66
2024/01/03 10:33:36;;;;;;;6.93;3.10;;;;;;;10.13;100.00;98425.44;6197417;28;20241;-67
2024/01/03 10:36:58;;;;;;;5.27;2.67;;;;;;;10.20;100.00;98444.34;6206315;28;20308;-67
2024/01/03 10:40:19;;;;;;;4.47;2.03;;;;;;;10.26;100.00;98430.91;6204338;28;20265;-67
2024/01/03 10:43:40;;;;;;;2.83;1.83;;;;;;;10.23;100.00;98449.31;6201685;28;20229;-67
2024/01/03 10:47:03;;;;;;;7.23;2.10;;;;;;;10.25;100.00;98396.09;6200685;28;20229;-66
2024/01/03 10:50:24;;;;;;;2.20;1.43;;;;;;;10.25;100.00;98466.94;6203056;28;20232;-66
2024/01/03 10:53:48;;;;;;;5.57;1.67;;;;;;;10.22;100.00;98437.72;6200819;28;20713;-67
2024/01/03 10:57:11;;;;;;;4.47;2.93;;;;;;;10.21;100.00;98452.22;6196500;28;20237;-67
2024/01/03 11:00:47;;;;;;;4.53;1.50;;;;;;;10.23;100.00;98447.47;6204876;28;20541;-68
2024/01/03 11:04:16;;;;;;;5.30;2.10;;;;;;;10.24;100.00;98451.81;6205874;28;20220;-67
2024/01/03 11:07:42;;;;;;;4.70;1.90;;;;;;;10.26;100.00;98479.38;6198085;28;20248;-67
2024/01/03 11:11:04;;;;;;;3.23;1.60;;;;;;;10.27;100.00;98470.28;6198391;28;20240;-67
2024/01/03 11:14:25;;;;;;;3.33;1.43;;;;;;;10.25;100.00;98449.94;6203468;28;20615;-67
2024/01/03 11:17:45;;;;;;;4.87;1.80;;;;;;;10.22;100.00;98435.00;6199356;28;20229;-68
2024/01/03 11:21:39;;;;;;;5.20;1.77;;;;;;;10.23;100.00;98446.63;6205170;28;20233;-68
2024/01/03 11:25:00;;;;;;;6.47;2.37;;;;;;;10.21;100.00;98437.91;6200702;28;20324;-67
2024/01/03 11:28:30;;;;;;;3.07;2.00;;;;;;;10.22;100.00;98456.56;6200906;28;20244;-67
2024/01/03 11:31:59;;;;;;;3.67;1.77;;;;;;;10.17;100.00;98458.16;6204987;28;20326;-67
2024/01/03 11:35:48;;;;;;;5.60;1.87;;;;;;;10.13;100.00;98464.97;6205068;28;20256;-68
2024/01/03 11:39:36;;;;;;;5.40;3.30;;;;;;;10.03;100.00;98477.88;6205319;28;20222;-67
2024/01/03 11:42:58;;;;;;;8.33;2.73;;;;;;;9.89;100.00;98482.28;6202246;28;20233;-69
2024/01/03 11:46:19;;;;;;;3.63;2.13;;;;;;;9.90;100.00;98467.81;6197971;28;20228;-67
2024/01/03 11:49:41;;;;;;;7.23;2.27;;;;;;;9.90;100.00;98469.66;6200771;28;20509;-67
2024/01/03 11:53:01;;;;;;;3.67;2.17;;;;;;;9.94;100.00;98481.72;6198815;28;20696;-67
2024/01/03 11:56:27;;;;;;;3.40;2.17;;;;;;;10.04;100.00;98466.91;6198876;28;20241;-67
2024/01/03 11:59:48;;;;;;;3.17;1.90;;;;;;;10.01;100.00;98469.16;6203420;28;20702;-67
2024/01/03 12:03:09;;;;;;;4.97;2.30;;;;;;;10.01;100.00;98467.28;6202876;28;20811;-67
2024/01/03 12:06:31;;;;;;;2.13;1.33;;;;;;;9.93;100.00;98478.19;6199925;28;20531;-67
2024/01/03 12:09:52;;;;;;;2.23;1.43;;;;;;;9.87;100.00;98472.72;6193844;28;20233;-67
2024/01/03 12:13:16;;;;;;;11.37;1.90;;;;;;;9.92;100.00;98456.84;6190788;28;20229;-68
2024/01/03 12:16:46;;;;;;;1.83;1.37;;;;;;;9.93;100.00;98453.16;6189608;28;20324;-67
2024/01/03 12:20:08;;;;;;;4.13;1.50;;;;;;;10.03;100.00;98470.66;6194334;28;20241;-66
2024/01/03 12:23:29;;;;;;;2.27;1.63;;;;;;;10.10;100.00;98452.72;6200875;28;20221;-68
2024/01/03 12:26:50;;;;;;;5.70;3.53;;;;;;;10.34;100.00;98448.81;6195893;28;20237;-68
2024/01/03 12:30:14;;;;;;;1.50;1.20;;;;;;;10.39;100.00;98457.13;6193004;28;20606;-68
2024/01/03 12:33:35;;;;;;;2.17;1.27;;;;;;;10.52;100.00;98457.22;6194609;28;20225;-68
2024/01/03 12:36:56;;;;;;;3.83;1.47;;;;;;;10.26;100.00;98457.03;6197492;28;20249;-67
2024/01/03 12:40:17;;;;;;;2.03;1.10;;;;;;;9.99;100.00;98472.03;6197362;28;20253;-67
2024/01/03 12:43:38;;;;;;;2.93;2.37;;;;;;;9.93;100.00;98486.25;6197889;28;20784;-67
2024/01/03 12:47:01;;;;;;;3.57;2.10;;;;;;;9.86;100.00;98476.44;6197904;28;20626;-68
2024/01/03 12:50:22;;;;;;;6.37;2.10;;;;;;;9.88;100.00;98471.72;6205346;28;20285;-66
2024/01/03 12:53:43;;;;;;;4.43;1.40;;;;;;;9.88;100.00;98456.41;6206109;28;20249;-67
2024/01/03 12:57:06;;;;;;;3.00;2.53;;;;;;;9.91;100.00;98449.81;6199498;28;20230;-67
2024/01/03 13:00:27;;;;;;;2.70;1.47;;;;;;;9.92;100.00;98463.06;6204158;28;20236;-66
2024/01/03 13:03:49;;;;;;;2.63;1.47;;;;;;;9.93;100.00;98467.41;6212607;28;20237;-66
2024/01/03 13:07:10;;;;;;;1.50;1.27;;;;;;;9.85;100.00;98462.16;6198309;28;20229;-67
2024/01/03 13:10:33;;;;;;;6.50;2.17;;;;;;;9.75;100.00;98475.09;6200767;28;20267;-67
2024/01/03 13:13:54;;;;;;;2.60;2.30;;;;;;;9.70;100.00;98465.94;6207919;28;20241;-67
2024/01/03 13:17:16;;;;;;;3.13;1.60;;;;;;;9.56;100.00;98481.06;6210264;28;20240;-68
2024/01/03 13:20:39;;;;;;;4.50;1.90;;;;;;;9.52;100.00;98480.63;6196591;28;20248;-67
2024/01/03 13:24:00;;;;;;;2.30;1.60;;;;;;;9.59;100.00;98480.72;6199719;28;20375;-67
2024/01/03 13:27:21;;;;;;;3.33;2.47;;;;;;;9.60;100.00;98468.91;6199216;28;20233;-67
2024/01/03 13:30:41;;;;;;;4.10;2.53;;;;;;;9.68;100.00;98472.31;6193424;28;20245;-67
2024/01/03 13:34:02;;;;;;;4.97;2.70;;;;;;;9.73;100.00;98470.91;6195317;28;20748;-67
2024/01/03 13:37:25;;;;;;;3.03;1.67;;;;;;;10.07;100.00;98479.16;6201184;28;20233;-67
2024/01/03 13:40:46;;;;;;;4.07;1.70;;;;;;;10.06;100.00;98461.34;6196836;28;20658;-66
2024/01/03 13:44:07;;;;;;;2.17;1.13;;;;;;;9.93;100.00;98469.28;6197007;28;20232;-68
2024/01/03 13:47:28;;;;;;;2.77;1.40;;;;;;;9.91;100.00;98477.53;6205000;28;20244;-68
2024/01/03 13:50:49;;;;;;;1.80;1.17;;;;;;;9.90;100.00;98473.19;6210286;28;20274;-69
2024/01/03 13:54:11;;;;;;;4.63;1.87;;;;;;;9.82;100.00;98481.41;6196178;28;20343;-67
2024/01/03 13:57:32;;;;;;;3.47;2.50;;;;;;;9.79;100.00;98487.13;6203034;28;20229;-68
2024/01/03 14:00:53;;;;;;;3.50;2.63;;;;;;;9.61;100.00;98484.03;6201884;28;20241;-70
2024/01/03 14:04:14;;;;;;;3.10;1.53;;;;;;;10.04;100.00;98490.31;6202328;28;20233;-68
2024/01/03 14:07:36;;;;;;;6.53;2.00;;;;;;;10.05;100.00;98486.59;6200244;28;20243;-68
2024/01/03 14:10:58;;;;;;;5.00;2.53;;;;;;;9.95;100.00;98502.22;6202596;28;20751;-69
2024/01/03 14:14:20;;;;;;;2.63;1.50;;;;;;;9.95;100.00;98483.41;6202504;28;21139;-69
2024/01/03 14:17:41;;;;;;;4.90;2.50;;;;;;;9.99;100.00;98484.69;6204680;28;20531;-68
2024/01/03 14:21:03;;;;;;;3.17;1.77;;;;;;;10.01;100.00;98482.63;6204320;28;20261;-69
2024/01/03 14:24:23;;;;;;;3.97;1.27;;;;;;;10.12;100.00;98487.50;6194875;28;20233;-69
2024/01/03 14:27:46;;;;;;;6.00;1.50;;;;;;;10.05;100.00;98484.75;6194754;28;20245;-68
2024/01/03 14:31:08;;;;;;;2.13;1.60;;;;;;;10.06;100.00;98493.63;6200869;28;20229;-69
2024/01/03 14:34:28;;;;;;;8.23;2.63;;;;;;;10.05;100.00;98498.22;6195201;28;20225;-68
2024/01/03 14:37:50;;;;;;;4.63;2.23;;;;;;;10.02;100.00;98498.56;6204342;28;20539;-68
2024/01/03 14:41:14;;;;;;;2.40;1.87;;;;;;;9.98;100.00;98493.75;6206323;28;20229;-68
2024/01/03 14:44:36;;;;;;;4.17;1.70;;;;;;;9.92;100.00;98499.91;6200791;28;20249;-68
2024/01/03 14:47:57;;;;;;;3.93;2.30;;;;;;;9.89;100.00;98493.03;6193912;28;20232;-68
2024/01/03 14:51:18;;;;;;;5.53;1.80;;;;;;;9.79;100.00;98497.06;6206803;28;21017;-68
2024/01/03 14:54:39;;;;;;;2.10;1.87;;;;;;;9.72;100.00;98488.09;6195804;28;20224;-67
2024/01/03 14:58:00;;;;;;;2.10;1.33;;;;;;;9.73;100.00;98498.66;6202708;28;20228;-67
2024/01/03 15:01:23;;;;;;;2.43;1.23;;;;;;;9.68;100.00;98500.25;6204552;28;20253;-68
2024/01/03 15:04:43;;;;;;;2.97;1.63;;;;;;;9.66;100.00;98517.41;6197460;28;20681;-67
2024/01/03 15:08:05;;;;;;;7.10;1.80;;;;;;;9.62;100.00;98512.59;6200450;28;20358;-67
2024/01/03 15:11:26;;;;;;;5.37;2.30;;;;;;;9.61;100.00;98508.25;6206634;28;20228;-68
2024/01/03 15:14:47;;;;;;;5.50;2.90;;;;;;;9.67;100.00;98534.38;6198904;28;20372;-68
2024/01/03 15:18:11;;;;;;;3.00;1.90;;;;;;;9.56;100.00;98535.69;6206899;28;20229;-69
2024/01/03 15:21:32;;;;;;;3.17;2.43;;;;;;;9.39;100.00;98533.38;6200261;28;20253;-69
2024/01/03 15:24:53;;;;;;;2.73;1.63;;;;;;;9.23;100.00;98552.41;6195425;28;20238;-69
2024/01/03 15:28:16;;;;;;;1.43;0.93;;;;;;;9.06;100.00;98538.31;6191163;28;20245;-69
2024/01/03 15:31:37;;;;;;;3.40;1.10;;;;;;;8.86;100.00;98545.22;6188578;28;20233;-69
2024/01/03 15:34:59;;;;;;;1.27;0.83;;;;;;;8.76;100.00;98544.66;6191276;28;20320;-66
2024/01/03 15:38:22;;;;;;;2.60;2.07;;;;;;;8.71;100.00;98552.41;6195182;28;20736;-68
2024/01/03 15:41:43;;;;;;;1.03;1.00;;;;;;;8.59;100.00;98549.34;6192267;28;20236;-68
2024/01/03 15:45:04;;;;;;;1.43;0.90;;;;;;;8.55;100.00;98556.06;6182998;28;20233;-68
2024/01/03 15:48:25;;;;;;;2.33;0.87;;;;;;;8.69;100.00;98552.59;6190666;28;20662;-68
2024/01/03 15:51:59;;;;;;;0.60;0.60;;;;;;;8.61;100.00;98554.53;6194073;28;20256;-67